sensor_id;sensor_type;location;lat;lon;timestamp;P1;durP1;ratioP1;P2;durP2;ratioP2
36391;SDS011;22639;42.690;23.356;2022-11-15T00:00:04;89.40;;;51.50;;
36391;SDS011;22639;42.690;23.356;2022-11-15T00:02:30;85.10;;;48.53;;
36391;SDS011;22639;42.690;23.356;2022-11-15T00:04:55;92.47;;;52.67;;
36391;SDS011;22639;42.690;23.356;2022-11-15T00:07:20;97.10;;;50.47;;
36391;SDS011;22639;42.690;23.356;2022-11-15T00:09:45;90.00;;;48.03;;
36391;SDS011;22639;42.690;23.356;2022-11-15T00:12:10;87.80;;;46.30;;
36391;SDS011;22639;42.690;23.356;2022-11-15T00:14:36;83.40;;;45.70;;
36391;SDS011;22639;42.690;23.356;2022-11-15T00:17:01;81.70;;;46.43;;
36391;SDS011;22639;42.690;23.356;2022-11-15T00:19:26;80.40;;;45.20;;
36391;SDS011;22639;42.690;23.356;2022-11-15T00:21:51;86.43;;;46.40;;
36391;SDS011;22639;42.690;23.356;2022-11-15T00:24:17;88.80;;;45.20;;
36391;SDS011;22639;42.690;23.356;2022-11-15T00:26:42;83.83;;;45.53;;
36391;SDS011;22639;42.690;23.356;2022-11-15T00:29:07;88.67;;;41.40;;
36391;SDS011;22639;42.690;23.356;2022-11-15T00:31:33;88.93;;;46.13;;
36391;SDS011;22639;42.690;23.356;2022-11-15T00:33:58;76.30;;;43.67;;
36391;SDS011;22639;42.690;23.356;2022-11-15T00:36:23;71.40;;;41.87;;
36391;SDS011;22639;42.690;23.356;2022-11-15T00:38:48;86.37;;;42.10;;
36391;SDS011;22639;42.690;23.356;2022-11-15T00:41:13;83.93;;;41.10;;
36391;SDS011;22639;42.690;23.356;2022-11-15T00:43:39;79.97;;;42.27;;
36391;SDS011;22639;42.690;23.356;2022-11-15T00:46:05;75.63;;;39.77;;
36391;SDS011;22639;42.690;23.356;2022-11-15T00:48:30;69.70;;;39.27;;
36391;SDS011;22639;42.690;23.356;2022-11-15T00:50:56;76.23;;;39.43;;
36391;SDS011;22639;42.690;23.356;2022-11-15T00:53:21;75.43;;;39.97;;
36391;SDS011;22639;42.690;23.356;2022-11-15T00:55:46;66.67;;;39.83;;
36391;SDS011;22639;42.690;23.356;2022-11-15T00:58:12;78.97;;;41.00;;
36391;SDS011;22639;42.690;23.356;2022-11-15T01:00:37;74.17;;;40.07;;
36391;SDS011;22639;42.690;23.356;2022-11-15T01:03:02;60.03;;;37.67;;
36391;SDS011;22639;42.690;23.356;2022-11-15T01:05:28;75.37;;;40.30;;
36391;SDS011;22639;42.690;23.356;2022-11-15T01:07:54;71.77;;;40.70;;
36391;SDS011;22639;42.690;23.356;2022-11-15T01:10:19;72.60;;;37.40;;
36391;SDS011;22639;42.690;23.356;2022-11-15T01:12:45;71.43;;;41.03;;
36391;SDS011;22639;42.690;23.356;2022-11-15T01:15:10;66.07;;;38.73;;
36391;SDS011;22639;42.690;23.356;2022-11-15T01:17:35;67.43;;;39.53;;
36391;SDS011;22639;42.690;23.356;2022-11-15T01:20:07;70.73;;;41.43;;
36391;SDS011;22639;42.690;23.356;2022-11-15T01:22:32;71.53;;;40.27;;
36391;SDS011;22639;42.690;23.356;2022-11-15T01:24:58;77.90;;;38.90;;
36391;SDS011;22639;42.690;23.356;2022-11-15T01:27:23;75.47;;;39.57;;
36391;SDS011;22639;42.690;23.356;2022-11-15T01:29:48;71.87;;;40.20;;
36391;SDS011;22639;42.690;23.356;2022-11-15T01:32:14;68.33;;;39.90;;
36391;SDS011;22639;42.690;23.356;2022-11-15T01:34:39;73.87;;;41.80;;
36391;SDS011;22639;42.690;23.356;2022-11-15T01:37:04;74.27;;;40.63;;
36391;SDS011;22639;42.690;23.356;2022-11-15T01:39:29;79.40;;;40.70;;
36391;SDS011;22639;42.690;23.356;2022-11-15T01:41:55;70.73;;;37.80;;
36391;SDS011;22639;42.690;23.356;2022-11-15T01:44:40;68.97;;;38.30;;
36391;SDS011;22639;42.690;23.356;2022-11-15T01:47:10;67.30;;;36.40;;
36391;SDS011;22639;42.690;23.356;2022-11-15T01:49:37;61.97;;;34.80;;
36391;SDS011;22639;42.690;23.356;2022-11-15T01:52:04;67.43;;;35.83;;
36391;SDS011;22639;42.690;23.356;2022-11-15T01:54:29;67.20;;;35.07;;
36391;SDS011;22639;42.690;23.356;2022-11-15T01:56:59;74.83;;;36.33;;
36391;SDS011;22639;42.690;23.356;2022-11-15T01:59:26;64.37;;;37.53;;
36391;SDS011;22639;42.690;23.356;2022-11-15T02:01:51;64.87;;;36.40;;
36391;SDS011;22639;42.690;23.356;2022-11-15T02:04:18;69.87;;;34.60;;
36391;SDS011;22639;42.690;23.356;2022-11-15T02:06:45;68.43;;;36.37;;
36391;SDS011;22639;42.690;23.356;2022-11-15T02:09:12;62.67;;;36.87;;
36391;SDS011;22639;42.690;23.356;2022-11-15T02:11:37;64.37;;;37.50;;
36391;SDS011;22639;42.690;23.356;2022-11-15T02:14:03;58.57;;;35.47;;
36391;SDS011;22639;42.690;23.356;2022-11-15T02:21:55;75.53;;;38.37;;
36391;SDS011;22639;42.690;23.356;2022-11-15T02:24:30;82.33;;;46.10;;
36391;SDS011;22639;42.690;23.356;2022-11-15T02:29:53;73.27;;;41.13;;
36391;SDS011;22639;42.690;23.356;2022-11-15T02:37:47;51.97;;;34.13;;
36391;SDS011;22639;42.690;23.356;2022-11-15T02:42:45;67.80;;;38.00;;
36391;SDS011;22639;42.690;23.356;2022-11-15T02:45:34;72.50;;;38.70;;
36391;SDS011;22639;42.690;23.356;2022-11-15T02:48:05;74.03;;;38.53;;
36391;SDS011;22639;42.690;23.356;2022-11-15T02:50:33;80.70;;;34.77;;
36391;SDS011;22639;42.690;23.356;2022-11-15T02:52:59;69.70;;;37.30;;
36391;SDS011;22639;42.690;23.356;2022-11-15T02:55:29;70.77;;;36.43;;
36391;SDS011;22639;42.690;23.356;2022-11-15T03:00:41;74.70;;;37.30;;
36391;SDS011;22639;42.690;23.356;2022-11-15T03:08:18;78.27;;;45.20;;
36391;SDS011;22639;42.690;23.356;2022-11-15T03:13:40;89.63;;;43.43;;
36391;SDS011;22639;42.690;23.356;2022-11-15T03:18:40;75.67;;;36.90;;
36391;SDS011;22639;42.690;23.356;2022-11-15T03:21:08;97.73;;;45.83;;
36391;SDS011;22639;42.690;23.356;2022-11-15T03:23:33;84.30;;;41.60;;
36391;SDS011;22639;42.690;23.356;2022-11-15T03:26:00;72.33;;;35.87;;
36391;SDS011;22639;42.690;23.356;2022-11-15T03:28:36;81.13;;;34.87;;
36391;SDS011;22639;42.690;23.356;2022-11-15T03:31:02;66.73;;;34.93;;
36391;SDS011;22639;42.690;23.356;2022-11-15T03:33:49;70.50;;;34.77;;
36391;SDS011;22639;42.690;23.356;2022-11-15T03:36:15;72.40;;;32.97;;
36391;SDS011;22639;42.690;23.356;2022-11-15T03:38:41;71.40;;;35.67;;
36391;SDS011;22639;42.690;23.356;2022-11-15T03:41:08;61.53;;;32.47;;
36391;SDS011;22639;42.690;23.356;2022-11-15T03:43:43;61.57;;;33.20;;
36391;SDS011;22639;42.690;23.356;2022-11-15T03:46:56;76.40;;;35.27;;
36391;SDS011;22639;42.690;23.356;2022-11-15T03:49:05;58.67;;;32.20;;
36391;SDS011;22639;42.690;23.356;2022-11-15T03:51:32;69.53;;;34.30;;
36391;SDS011;22639;42.690;23.356;2022-11-15T03:53:57;76.27;;;38.20;;
36391;SDS011;22639;42.690;23.356;2022-11-15T03:56:23;78.97;;;42.10;;
36391;SDS011;22639;42.690;23.356;2022-11-15T03:58:48;86.20;;;41.83;;
36391;SDS011;22639;42.690;23.356;2022-11-15T04:01:13;84.37;;;45.67;;
36391;SDS011;22639;42.690;23.356;2022-11-15T04:03:38;76.57;;;41.23;;
36391;SDS011;22639;42.690;23.356;2022-11-15T04:06:04;85.13;;;44.73;;
36391;SDS011;22639;42.690;23.356;2022-11-15T04:08:29;81.47;;;44.63;;
36391;SDS011;22639;42.690;23.356;2022-11-15T04:10:54;95.47;;;46.60;;
36391;SDS011;22639;42.690;23.356;2022-11-15T04:13:19;99.87;;;46.73;;
36391;SDS011;22639;42.690;23.356;2022-11-15T04:16:03;85.57;;;47.43;;
36391;SDS011;22639;42.690;23.356;2022-11-15T04:18:29;93.60;;;48.57;;
36391;SDS011;22639;42.690;23.356;2022-11-15T04:20:54;99.93;;;52.00;;
36391;SDS011;22639;42.690;23.356;2022-11-15T04:23:38;96.47;;;52.20;;
36391;SDS011;22639;42.690;23.356;2022-11-15T04:26:33;86.70;;;45.70;;
36391;SDS011;22639;42.690;23.356;2022-11-15T04:28:58;75.67;;;41.53;;
36391;SDS011;22639;42.690;23.356;2022-11-15T04:31:42;74.63;;;41.17;;
36391;SDS011;22639;42.690;23.356;2022-11-15T04:34:07;74.67;;;41.90;;
36391;SDS011;22639;42.690;23.356;2022-11-15T04:36:32;67.47;;;39.60;;
36391;SDS011;22639;42.690;23.356;2022-11-15T04:39:16;74.30;;;40.80;;
36391;SDS011;22639;42.690;23.356;2022-11-15T04:41:41;78.87;;;44.50;;
36391;SDS011;22639;42.690;23.356;2022-11-15T04:44:07;77.97;;;43.30;;
36391;SDS011;22639;42.690;23.356;2022-11-15T04:46:32;69.50;;;40.77;;
36391;SDS011;22639;42.690;23.356;2022-11-15T04:48:57;67.90;;;38.77;;
36391;SDS011;22639;42.690;23.356;2022-11-15T04:51:22;64.93;;;34.33;;
36391;SDS011;22639;42.690;23.356;2022-11-15T04:53:48;63.00;;;36.43;;
36391;SDS011;22639;42.690;23.356;2022-11-15T04:56:13;68.60;;;37.03;;
36391;SDS011;22639;42.690;23.356;2022-11-15T04:58:38;58.47;;;35.70;;
36391;SDS011;22639;42.690;23.356;2022-11-15T05:01:10;58.93;;;34.20;;
36391;SDS011;22639;42.690;23.356;2022-11-15T05:03:36;63.67;;;34.10;;
36391;SDS011;22639;42.690;23.356;2022-11-15T05:06:20;55.43;;;32.90;;
36391;SDS011;22639;42.690;23.356;2022-11-15T05:08:45;57.37;;;32.40;;
36391;SDS011;22639;42.690;23.356;2022-11-15T05:11:10;57.50;;;32.40;;
36391;SDS011;22639;42.690;23.356;2022-11-15T05:13:35;52.57;;;31.97;;
36391;SDS011;22639;42.690;23.356;2022-11-15T05:16:01;49.33;;;30.13;;
36391;SDS011;22639;42.690;23.356;2022-11-15T05:18:26;55.47;;;30.13;;
36391;SDS011;22639;42.690;23.356;2022-11-15T05:20:51;54.40;;;30.23;;
36391;SDS011;22639;42.690;23.356;2022-11-15T05:23:16;52.43;;;28.53;;
36391;SDS011;22639;42.690;23.356;2022-11-15T05:25:42;61.27;;;29.13;;
36391;SDS011;22639;42.690;23.356;2022-11-15T05:28:07;54.37;;;30.40;;
36391;SDS011;22639;42.690;23.356;2022-11-15T05:30:32;50.03;;;27.53;;
36391;SDS011;22639;42.690;23.356;2022-11-15T05:32:57;51.47;;;27.47;;
36391;SDS011;22639;42.690;23.356;2022-11-15T05:35:29;42.07;;;23.50;;
36391;SDS011;22639;42.690;23.356;2022-11-15T05:37:55;54.33;;;25.30;;
36391;SDS011;22639;42.690;23.356;2022-11-15T05:40:21;49.77;;;21.43;;
36391;SDS011;22639;42.690;23.356;2022-11-15T05:42:46;45.40;;;21.43;;
36391;SDS011;22639;42.690;23.356;2022-11-15T05:45:11;42.20;;;20.27;;
36391;SDS011;22639;42.690;23.356;2022-11-15T05:47:37;48.53;;;21.50;;
36391;SDS011;22639;42.690;23.356;2022-11-15T05:50:03;39.33;;;22.17;;
36391;SDS011;22639;42.690;23.356;2022-11-15T05:52:30;38.87;;;21.83;;
36391;SDS011;22639;42.690;23.356;2022-11-15T05:54:56;47.03;;;21.63;;
36391;SDS011;22639;42.690;23.356;2022-11-15T05:57:21;43.03;;;23.87;;
36391;SDS011;22639;42.690;23.356;2022-11-15T05:59:47;51.50;;;24.77;;
36391;SDS011;22639;42.690;23.356;2022-11-15T06:02:12;52.50;;;24.63;;
36391;SDS011;22639;42.690;23.356;2022-11-15T06:04:37;54.53;;;25.33;;
36391;SDS011;22639;42.690;23.356;2022-11-15T06:07:03;39.37;;;19.70;;
36391;SDS011;22639;42.690;23.356;2022-11-15T06:09:28;32.20;;;18.67;;
36391;SDS011;22639;42.690;23.356;2022-11-15T06:11:53;34.10;;;19.23;;
36391;SDS011;22639;42.690;23.356;2022-11-15T06:14:19;32.13;;;17.83;;
36391;SDS011;22639;42.690;23.356;2022-11-15T06:16:44;42.60;;;18.80;;
36391;SDS011;22639;42.690;23.356;2022-11-15T06:19:10;36.30;;;18.50;;
36391;SDS011;22639;42.690;23.356;2022-11-15T06:21:35;31.17;;;17.97;;
36391;SDS011;22639;42.690;23.356;2022-11-15T06:24:00;35.37;;;17.70;;
36391;SDS011;22639;42.690;23.356;2022-11-15T06:26:26;39.23;;;19.77;;
36391;SDS011;22639;42.690;23.356;2022-11-15T06:28:51;36.43;;;18.47;;
36391;SDS011;22639;42.690;23.356;2022-11-15T06:31:16;43.37;;;21.13;;
36391;SDS011;22639;42.690;23.356;2022-11-15T06:33:41;42.73;;;20.93;;
36391;SDS011;22639;42.690;23.356;2022-11-15T06:36:08;38.67;;;20.10;;
36391;SDS011;22639;42.690;23.356;2022-11-15T06:38:34;41.33;;;21.10;;
36391;SDS011;22639;42.690;23.356;2022-11-15T06:41:03;45.00;;;22.80;;
36391;SDS011;22639;42.690;23.356;2022-11-15T06:43:29;41.43;;;22.30;;
36391;SDS011;22639;42.690;23.356;2022-11-15T06:45:54;46.27;;;22.17;;
36391;SDS011;22639;42.690;23.356;2022-11-15T06:48:19;42.93;;;21.40;;
36391;SDS011;22639;42.690;23.356;2022-11-15T06:50:50;39.10;;;19.90;;
36391;SDS011;22639;42.690;23.356;2022-11-15T06:53:15;40.20;;;20.00;;
36391;SDS011;22639;42.690;23.356;2022-11-15T06:55:40;36.33;;;18.73;;
36391;SDS011;22639;42.690;23.356;2022-11-15T06:58:06;35.57;;;20.40;;
36391;SDS011;22639;42.690;23.356;2022-11-15T07:00:31;39.50;;;19.90;;
36391;SDS011;22639;42.690;23.356;2022-11-15T07:02:59;40.97;;;20.67;;
36391;SDS011;22639;42.690;23.356;2022-11-15T07:05:24;39.60;;;20.03;;
36391;SDS011;22639;42.690;23.356;2022-11-15T07:07:52;33.37;;;18.70;;
36391;SDS011;22639;42.690;23.356;2022-11-15T07:10:18;42.43;;;15.63;;
36391;SDS011;22639;42.690;23.356;2022-11-15T07:12:46;36.30;;;18.53;;
36391;SDS011;22639;42.690;23.356;2022-11-15T07:15:11;38.60;;;18.57;;
36391;SDS011;22639;42.690;23.356;2022-11-15T07:17:36;40.17;;;19.33;;
36391;SDS011;22639;42.690;23.356;2022-11-15T07:20:02;33.97;;;17.10;;
36391;SDS011;22639;42.690;23.356;2022-11-15T07:22:27;37.57;;;20.37;;
36391;SDS011;22639;42.690;23.356;2022-11-15T07:24:52;39.57;;;19.47;;
36391;SDS011;22639;42.690;23.356;2022-11-15T07:27:18;46.03;;;20.60;;
36391;SDS011;22639;42.690;23.356;2022-11-15T07:29:43;41.93;;;21.53;;
36391;SDS011;22639;42.690;23.356;2022-11-15T07:32:08;44.57;;;23.07;;
36391;SDS011;22639;42.690;23.356;2022-11-15T07:34:34;48.80;;;23.23;;
36391;SDS011;22639;42.690;23.356;2022-11-15T07:36:59;54.07;;;24.40;;
36391;SDS011;22639;42.690;23.356;2022-11-15T07:39:24;60.37;;;25.03;;
36391;SDS011;22639;42.690;23.356;2022-11-15T07:41:50;47.33;;;24.00;;
36391;SDS011;22639;42.690;23.356;2022-11-15T07:44:35;54.00;;;27.30;;
36391;SDS011;22639;42.690;23.356;2022-11-15T07:47:00;55.90;;;28.60;;
36391;SDS011;22639;42.690;23.356;2022-11-15T07:49:25;59.40;;;26.13;;
36391;SDS011;22639;42.690;23.356;2022-11-15T07:51:50;57.87;;;28.13;;
36391;SDS011;22639;42.690;23.356;2022-11-15T07:54:16;62.23;;;28.33;;
36391;SDS011;22639;42.690;23.356;2022-11-15T07:56:41;49.30;;;25.50;;
36391;SDS011;22639;42.690;23.356;2022-11-15T07:59:06;55.90;;;28.17;;
36391;SDS011;22639;42.690;23.356;2022-11-15T08:01:31;56.60;;;26.43;;
36391;SDS011;22639;42.690;23.356;2022-11-15T08:03:57;59.70;;;26.50;;
36391;SDS011;22639;42.690;23.356;2022-11-15T08:06:22;53.43;;;26.83;;
36391;SDS011;22639;42.690;23.356;2022-11-15T08:08:47;64.07;;;28.07;;
36391;SDS011;22639;42.690;23.356;2022-11-15T08:11:13;55.70;;;28.47;;
36391;SDS011;22639;42.690;23.356;2022-11-15T08:13:38;57.20;;;27.10;;
36391;SDS011;22639;42.690;23.356;2022-11-15T08:16:03;53.03;;;25.53;;
36391;SDS011;22639;42.690;23.356;2022-11-15T08:18:30;49.93;;;25.90;;
36391;SDS011;22639;42.690;23.356;2022-11-15T08:20:58;53.63;;;25.60;;
36391;SDS011;22639;42.690;23.356;2022-11-15T08:23:24;59.07;;;26.77;;
36391;SDS011;22639;42.690;23.356;2022-11-15T08:25:49;59.80;;;26.30;;
36391;SDS011;22639;42.690;23.356;2022-11-15T08:28:15;48.63;;;25.80;;
36391;SDS011;22639;42.690;23.356;2022-11-15T08:30:41;53.30;;;24.73;;
36391;SDS011;22639;42.690;23.356;2022-11-15T08:33:10;64.43;;;28.53;;
36391;SDS011;22639;42.690;23.356;2022-11-15T08:35:35;58.13;;;29.47;;
36391;SDS011;22639;42.690;23.356;2022-11-15T08:38:01;65.03;;;28.83;;
36391;SDS011;22639;42.690;23.356;2022-11-15T08:40:26;62.60;;;29.43;;
36391;SDS011;22639;42.690;23.356;2022-11-15T08:42:52;64.63;;;29.57;;
36391;SDS011;22639;42.690;23.356;2022-11-15T08:45:17;67.43;;;29.87;;
36391;SDS011;22639;42.690;23.356;2022-11-15T08:47:42;57.63;;;29.77;;
36391;SDS011;22639;42.690;23.356;2022-11-15T08:50:08;53.93;;;28.07;;
36391;SDS011;22639;42.690;23.356;2022-11-15T08:52:33;53.50;;;29.20;;
36391;SDS011;22639;42.690;23.356;2022-11-15T08:54:58;59.63;;;29.97;;
36391;SDS011;22639;42.690;23.356;2022-11-15T08:57:24;57.87;;;29.60;;
36391;SDS011;22639;42.690;23.356;2022-11-15T08:59:49;60.00;;;29.50;;
36391;SDS011;22639;42.690;23.356;2022-11-15T09:02:14;65.10;;;31.03;;
36391;SDS011;22639;42.690;23.356;2022-11-15T09:04:40;58.53;;;29.13;;
36391;SDS011;22639;42.690;23.356;2022-11-15T09:07:06;66.10;;;32.87;;
36391;SDS011;22639;42.690;23.356;2022-11-15T09:09:31;64.93;;;29.70;;
36391;SDS011;22639;42.690;23.356;2022-11-15T09:11:57;63.30;;;32.07;;
36391;SDS011;22639;42.690;23.356;2022-11-15T09:14:22;57.97;;;30.43;;
36391;SDS011;22639;42.690;23.356;2022-11-15T09:16:47;66.53;;;32.50;;
36391;SDS011;22639;42.690;23.356;2022-11-15T09:19:12;64.90;;;30.80;;
36391;SDS011;22639;42.690;23.356;2022-11-15T09:21:39;63.47;;;32.27;;
36391;SDS011;22639;42.690;23.356;2022-11-15T09:24:04;63.73;;;31.33;;
36391;SDS011;22639;42.690;23.356;2022-11-15T09:26:30;66.67;;;32.53;;
36391;SDS011;22639;42.690;23.356;2022-11-15T09:28:55;70.60;;;32.73;;
36391;SDS011;22639;42.690;23.356;2022-11-15T09:31:20;71.03;;;34.47;;
36391;SDS011;22639;42.690;23.356;2022-11-15T09:33:46;66.70;;;33.10;;
36391;SDS011;22639;42.690;23.356;2022-11-15T09:36:12;71.77;;;34.20;;
36391;SDS011;22639;42.690;23.356;2022-11-15T09:38:37;67.93;;;32.07;;
36391;SDS011;22639;42.690;23.356;2022-11-15T09:51:08;75.37;;;34.83;;
36391;SDS011;22639;42.690;23.356;2022-11-15T09:53:42;67.07;;;35.77;;
36391;SDS011;22639;42.690;23.356;2022-11-15T09:56:24;75.43;;;34.97;;
36391;SDS011;22639;42.690;23.356;2022-11-15T09:58:54;78.00;;;36.30;;
36391;SDS011;22639;42.690;23.356;2022-11-15T10:04:05;67.90;;;35.13;;
36391;SDS011;22639;42.690;23.356;2022-11-15T10:06:31;71.80;;;36.10;;
36391;SDS011;22639;42.690;23.356;2022-11-15T10:09:33;73.87;;;36.53;;
36391;SDS011;22639;42.690;23.356;2022-11-15T10:11:51;71.93;;;35.83;;
36391;SDS011;22639;42.690;23.356;2022-11-15T10:14:23;70.23;;;37.80;;
36391;SDS011;22639;42.690;23.356;2022-11-15T10:19:26;72.13;;;35.47;;
36391;SDS011;22639;42.690;23.356;2022-11-15T10:24:40;75.27;;;38.80;;
36391;SDS011;22639;42.690;23.356;2022-11-15T10:27:08;72.10;;;39.67;;
36391;SDS011;22639;42.690;23.356;2022-11-15T10:29:34;74.77;;;40.80;;
36391;SDS011;22639;42.690;23.356;2022-11-15T10:31:59;72.33;;;40.93;;
36391;SDS011;22639;42.690;23.356;2022-11-15T10:34:24;74.50;;;40.23;;
36391;SDS011;22639;42.690;23.356;2022-11-15T10:36:54;80.10;;;43.70;;
36391;SDS011;22639;42.690;23.356;2022-11-15T10:39:20;79.07;;;39.43;;
36391;SDS011;22639;42.690;23.356;2022-11-15T10:41:45;70.67;;;41.60;;
36391;SDS011;22639;42.690;23.356;2022-11-15T10:46:42;80.60;;;44.73;;
36391;SDS011;22639;42.690;23.356;2022-11-15T10:49:17;83.33;;;45.13;;
36391;SDS011;22639;42.690;23.356;2022-11-15T10:51:47;92.00;;;44.57;;
36391;SDS011;22639;42.690;23.356;2022-11-15T10:54:16;87.40;;;44.37;;
36391;SDS011;22639;42.690;23.356;2022-11-15T10:56:43;77.40;;;42.00;;
36391;SDS011;22639;42.690;23.356;2022-11-15T10:59:18;82.03;;;43.87;;
36391;SDS011;22639;42.690;23.356;2022-11-15T11:01:46;70.70;;;41.93;;
36391;SDS011;22639;42.690;23.356;2022-11-15T11:04:12;68.67;;;40.47;;
36391;SDS011;22639;42.690;23.356;2022-11-15T11:06:57;66.57;;;36.87;;
36391;SDS011;22639;42.690;23.356;2022-11-15T11:09:36;68.83;;;35.00;;
36391;SDS011;22639;42.690;23.356;2022-11-15T11:12:02;65.23;;;35.20;;
36391;SDS011;22639;42.690;23.356;2022-11-15T11:14:28;66.80;;;36.37;;
36391;SDS011;22639;42.690;23.356;2022-11-15T11:19:36;59.10;;;34.43;;
36391;SDS011;22639;42.690;23.356;2022-11-15T11:25:17;62.90;;;37.30;;
36391;SDS011;22639;42.690;23.356;2022-11-15T11:35:16;66.90;;;33.97;;
36391;SDS011;22639;42.690;23.356;2022-11-15T11:42:54;58.70;;;33.40;;
36391;SDS011;22639;42.690;23.356;2022-11-15T11:48:12;63.97;;;36.57;;
36391;SDS011;22639;42.690;23.356;2022-11-15T11:50:38;57.30;;;32.43;;
36391;SDS011;22639;42.690;23.356;2022-11-15T11:55:47;59.13;;;33.93;;
36391;SDS011;22639;42.690;23.356;2022-11-15T11:58:19;56.40;;;34.20;;
36391;SDS011;22639;42.690;23.356;2022-11-15T12:00:54;60.27;;;33.63;;
36391;SDS011;22639;42.690;23.356;2022-11-15T12:03:34;60.70;;;33.97;;
36391;SDS011;22639;42.690;23.356;2022-11-15T12:06:01;60.77;;;34.50;;
36391;SDS011;22639;42.690;23.356;2022-11-15T12:13:58;57.30;;;32.60;;
36391;SDS011;22639;42.690;23.356;2022-11-15T12:16:26;54.23;;;32.07;;
36391;SDS011;22639;42.690;23.356;2022-11-15T12:18:56;52.80;;;31.37;;
36391;SDS011;22639;42.690;23.356;2022-11-15T12:26:47;56.93;;;33.43;;
36391;SDS011;22639;42.690;23.356;2022-11-15T12:29:25;60.87;;;34.30;;
36391;SDS011;22639;42.690;23.356;2022-11-15T12:31:53;64.97;;;35.13;;
36391;SDS011;22639;42.690;23.356;2022-11-15T12:36:47;60.03;;;36.37;;
36391;SDS011;22639;42.690;23.356;2022-11-15T12:39:13;62.93;;;34.80;;
36391;SDS011;22639;42.690;23.356;2022-11-15T12:41:39;60.97;;;35.17;;
36391;SDS011;22639;42.690;23.356;2022-11-15T12:44:09;65.17;;;34.13;;
36391;SDS011;22639;42.690;23.356;2022-11-15T12:49:10;57.10;;;36.37;;
36391;SDS011;22639;42.690;23.356;2022-11-15T12:59:48;62.23;;;36.30;;
36391;SDS011;22639;42.690;23.356;2022-11-15T13:04:48;71.70;;;39.13;;
36391;SDS011;22639;42.690;23.356;2022-11-15T13:09:57;73.10;;;38.33;;
36391;SDS011;22639;42.690;23.356;2022-11-15T13:14:55;69.57;;;37.47;;
36391;SDS011;22639;42.690;23.356;2022-11-15T13:19:54;63.93;;;37.40;;
36391;SDS011;22639;42.690;23.356;2022-11-15T13:22:22;67.67;;;38.43;;
36391;SDS011;22639;42.690;23.356;2022-11-15T13:25:14;68.33;;;38.23;;
36391;SDS011;22639;42.690;23.356;2022-11-15T13:27:40;76.43;;;38.40;;
36391;SDS011;22639;42.690;23.356;2022-11-15T13:30:12;58.70;;;37.53;;
36391;SDS011;22639;42.690;23.356;2022-11-15T13:32:38;70.60;;;38.33;;
36391;SDS011;22639;42.690;23.356;2022-11-15T13:35:06;66.80;;;36.17;;
36391;SDS011;22639;42.690;23.356;2022-11-15T13:37:33;64.27;;;36.60;;
36391;SDS011;22639;42.690;23.356;2022-11-15T13:42:43;70.03;;;38.93;;
36391;SDS011;22639;42.690;23.356;2022-11-15T13:45:11;67.57;;;36.73;;
36391;SDS011;22639;42.690;23.356;2022-11-15T13:47:37;55.40;;;36.90;;
36391;SDS011;22639;42.690;23.356;2022-11-15T13:50:06;58.07;;;35.87;;
36391;SDS011;22639;42.690;23.356;2022-11-15T13:52:35;63.33;;;36.27;;
36391;SDS011;22639;42.690;23.356;2022-11-15T13:55:03;58.90;;;36.47;;
36391;SDS011;22639;42.690;23.356;2022-11-15T13:57:35;65.70;;;38.43;;
36391;SDS011;22639;42.690;23.356;2022-11-15T14:00:04;61.63;;;37.27;;
36391;SDS011;22639;42.690;23.356;2022-11-15T14:02:31;63.70;;;38.20;;
36391;SDS011;22639;42.690;23.356;2022-11-15T14:07:26;58.87;;;34.63;;
36391;SDS011;22639;42.690;23.356;2022-11-15T14:09:52;60.30;;;37.43;;
36391;SDS011;22639;42.690;23.356;2022-11-15T14:14:56;71.87;;;36.47;;
36391;SDS011;22639;42.690;23.356;2022-11-15T14:17:32;62.07;;;35.53;;
36391;SDS011;22639;42.690;23.356;2022-11-15T14:19:58;73.07;;;37.20;;
36391;SDS011;22639;42.690;23.356;2022-11-15T14:22:27;69.00;;;39.27;;
36391;SDS011;22639;42.690;23.356;2022-11-15T14:27:37;58.03;;;34.20;;
36391;SDS011;22639;42.690;23.356;2022-11-15T14:30:02;58.33;;;33.90;;
36391;SDS011;22639;42.690;23.356;2022-11-15T14:32:28;57.83;;;32.97;;
36391;SDS011;22639;42.690;23.356;2022-11-15T14:35:03;60.27;;;37.97;;
36391;SDS011;22639;42.690;23.356;2022-11-15T14:37:29;64.50;;;37.23;;
36391;SDS011;22639;42.690;23.356;2022-11-15T14:39:58;69.67;;;39.40;;
36391;SDS011;22639;42.690;23.356;2022-11-15T14:42:24;64.33;;;37.23;;
36391;SDS011;22639;42.690;23.356;2022-11-15T14:44:49;71.70;;;40.20;;
36391;SDS011;22639;42.690;23.356;2022-11-15T14:47:15;72.90;;;41.40;;
36391;SDS011;22639;42.690;23.356;2022-11-15T14:49:40;76.13;;;44.10;;
36391;SDS011;22639;42.690;23.356;2022-11-15T14:54:54;72.03;;;41.53;;
36391;SDS011;22639;42.690;23.356;2022-11-15T14:57:19;69.93;;;42.00;;
36391;SDS011;22639;42.690;23.356;2022-11-15T14:59:44;76.23;;;41.27;;
36391;SDS011;22639;42.690;23.356;2022-11-15T15:02:17;67.87;;;40.73;;
36391;SDS011;22639;42.690;23.356;2022-11-15T15:04:43;70.20;;;41.43;;
36391;SDS011;22639;42.690;23.356;2022-11-15T15:07:08;73.63;;;42.00;;
36391;SDS011;22639;42.690;23.356;2022-11-15T15:09:33;65.73;;;38.73;;
36391;SDS011;22639;42.690;23.356;2022-11-15T15:11:58;70.63;;;39.70;;
36391;SDS011;22639;42.690;23.356;2022-11-15T15:14:24;69.17;;;38.87;;
36391;SDS011;22639;42.690;23.356;2022-11-15T15:16:49;73.30;;;36.63;;
36391;SDS011;22639;42.690;23.356;2022-11-15T15:19:14;65.33;;;36.03;;
36391;SDS011;22639;42.690;23.356;2022-11-15T15:21:39;67.63;;;37.17;;
36391;SDS011;22639;42.690;23.356;2022-11-15T15:24:05;68.63;;;35.07;;
36391;SDS011;22639;42.690;23.356;2022-11-15T15:26:30;60.70;;;34.00;;
36391;SDS011;22639;42.690;23.356;2022-11-15T15:28:58;64.40;;;35.73;;
36391;SDS011;22639;42.690;23.356;2022-11-15T15:31:23;60.30;;;36.63;;
36391;SDS011;22639;42.690;23.356;2022-11-15T15:33:49;60.53;;;35.33;;
36391;SDS011;22639;42.690;23.356;2022-11-15T15:36:17;77.37;;;39.77;;
36391;SDS011;22639;42.690;23.356;2022-11-15T15:38:43;79.47;;;40.33;;
36391;SDS011;22639;42.690;23.356;2022-11-15T15:41:11;69.77;;;36.93;;
36391;SDS011;22639;42.690;23.356;2022-11-15T15:43:37;65.83;;;37.23;;
36391;SDS011;22639;42.690;23.356;2022-11-15T15:46:02;63.97;;;36.93;;
36391;SDS011;22639;42.690;23.356;2022-11-15T15:48:28;70.93;;;37.43;;
36391;SDS011;22639;42.690;23.356;2022-11-15T15:50:53;68.90;;;36.57;;
36391;SDS011;22639;42.690;23.356;2022-11-15T15:53:18;68.20;;;37.23;;
36391;SDS011;22639;42.690;23.356;2022-11-15T15:55:45;69.23;;;39.97;;
36391;SDS011;22639;42.690;23.356;2022-11-15T15:58:10;75.33;;;38.97;;
36391;SDS011;22639;42.690;23.356;2022-11-15T16:00:35;68.13;;;38.83;;
36391;SDS011;22639;42.690;23.356;2022-11-15T16:03:01;82.23;;;43.23;;
36391;SDS011;22639;42.690;23.356;2022-11-15T16:05:27;80.70;;;44.83;;
36391;SDS011;22639;42.690;23.356;2022-11-15T16:07:52;85.63;;;47.27;;
36391;SDS011;22639;42.690;23.356;2022-11-15T16:12:42;94.60;;;50.13;;